SPJL/JUL METAR and TAF weather

Enter ICAO airport designator
Station Type Date Time Source
SPJL METAR 2018/12/15 21:00 UTC NOAA

SPJL 152100Z 35010KT 9999 SCT020 BKN065 14/04 Q1032 RMK PPOOO


Station Type Date Time Source
SPJL Decoded METAR 2018/12/15 21:00 UTC NOAA

Juliaca, Peru (SPJL) 15-29S 070-09W 3827M
Dec 15, 2018 - 04:00 PM EST / 2018.12.15 2100 UTC
Wind: from the N (350 degrees) at 12 MPH (10 KT):0
Visibility: greater than 7 mile(s):0
Sky conditions: mostly cloudy
Temperature: 57 F (14 C)
Dew Point: 39 F (4 C)
Relative Humidity: 50%
Pressure (altimeter): 30.47 in. Hg (1032 hPa)
ob: SPJL 152100Z 35010KT 9999 SCT020 BKN065 14/04 Q1032 RMK PPOOO
cycle: 21

Station Type Date Time Source
SPJL TAF 2018/12/15 18:33 UTC NOAA

TAF COR SPJL 151712Z 1518/1618 11010KT 9999 SCT020 SCT100 TX19/1519Z TN05/1610Z
FM160000 20007KT 9999 SCT020 SCT080


Example: see airport list